createdAt,value
2022-11-04T00:00:41.150Z,0
2022-11-04T00:01:36.864Z,0
2022-11-04T00:02:38.025Z,0
2022-11-04T00:03:38.439Z,0
2022-11-04T00:04:39.048Z,0
2022-11-04T00:05:39.948Z,0
2022-11-04T00:06:40.562Z,0
2022-11-04T00:07:41.473Z,0
2022-11-04T00:08:41.653Z,0
2022-11-04T00:09:41.929Z,0
2022-11-04T00:10:42.857Z,0
2022-11-04T00:11:43.028Z,0
2022-11-04T00:12:43.226Z,0
2022-11-04T00:13:43.716Z,0
2022-11-04T00:14:43.927Z,0
2022-11-04T00:15:43.831Z,0
2022-11-04T00:16:44.450Z,0
2022-11-04T00:17:45.358Z,0
2022-11-04T00:18:45.967Z,0
2022-11-04T00:19:46.172Z,0
2022-11-04T00:20:47.094Z,0
2022-11-04T00:21:46.986Z,0
2022-11-04T00:22:47.619Z,0
2022-11-04T00:23:48.933Z,0
2022-11-04T00:24:48.838Z,0
2022-11-04T00:25:49.305Z,0
2022-11-04T00:26:50.509Z,0
2022-11-04T00:27:50.706Z,0
2022-11-04T00:28:51.627Z,0
2022-11-04T00:29:51.814Z,0
2022-11-04T00:30:52.725Z,0
2022-11-04T00:31:53.330Z,0
2022-11-04T00:32:53.518Z,0
2022-11-04T00:33:54.207Z,0
2022-11-04T00:34:54.833Z,0
2022-11-04T00:35:56.514Z,0
2022-11-04T00:36:57.441Z,0
2022-11-04T00:37:58.364Z,0
2022-11-04T00:38:58.990Z,0
2022-11-04T00:39:59.597Z,0
2022-11-04T00:41:00.782Z,0
2022-11-04T00:42:01.024Z,0
2022-11-04T00:43:01.519Z,0
2022-11-04T00:44:02.132Z,0
2022-11-04T00:45:01.741Z,0
2022-11-04T00:46:03.366Z,0
2022-11-04T00:47:02.985Z,0
2022-11-04T00:48:04.017Z,0
2022-11-04T00:49:04.437Z,0
2022-11-04T00:50:05.343Z,0
2022-11-04T00:51:06.697Z,0
2022-11-04T00:52:06.932Z,0
2022-11-04T00:53:07.536Z,0
2022-11-04T00:54:08.073Z,0
2022-11-04T00:55:08.420Z,0
2022-11-04T00:56:09.333Z,0
2022-11-04T00:57:10.520Z,0
2022-11-04T00:58:10.715Z,0
2022-11-04T00:59:18.913Z,0
2022-11-04T01:00:10.518Z,0
2022-11-04T01:01:11.667Z,0
2022-11-04T01:02:13.686Z,0
2022-11-04T01:03:14.227Z,0
2022-11-04T01:04:12.950Z,0
2022-11-04T01:05:14.582Z,0
2022-11-04T01:06:15.848Z,0
2022-11-04T01:07:16.464Z,0
2022-11-04T01:08:17.073Z,0
2022-11-04T01:09:18.257Z,0
2022-11-04T01:10:18.171Z,0
2022-11-04T01:11:19.089Z,0
2022-11-04T01:12:20.273Z,0
2022-11-04T01:13:21.509Z,0
2022-11-04T01:14:21.245Z,0
2022-11-04T01:15:22.128Z,0
2022-11-04T01:16:22.967Z,0
2022-11-04T01:17:23.890Z,0
2022-11-04T01:18:23.794Z,0
2022-11-04T01:19:24.705Z,0
2022-11-04T01:20:25.313Z,0
2022-11-04T01:21:25.816Z,0
2022-11-04T01:22:26.003Z,0
2022-11-04T01:23:27.255Z,0
2022-11-04T01:24:27.538Z,0
2022-11-04T01:25:27.745Z,0
2022-11-04T01:26:28.231Z,0
2022-11-04T01:27:28.417Z,0
2022-11-04T01:28:29.066Z,0
2022-11-04T01:29:29.298Z,0
2022-11-04T01:30:29.786Z,0
2022-11-04T01:31:29.729Z,0
2022-11-04T01:32:30.641Z,0
2022-11-04T01:33:31.133Z,0
2022-11-04T01:34:30.993Z,0
2022-11-04T01:35:31.351Z,0
2022-11-04T01:36:32.549Z,0
2022-11-04T01:37:33.154Z,0
2022-11-04T01:38:33.771Z,0
2022-11-04T01:39:34.662Z,0
2022-11-04T01:40:35.553Z,0
2022-11-04T01:41:36.144Z,0
2022-11-04T01:42:37.627Z,0
2022-11-04T01:43:37.832Z,0
2022-11-04T01:44:38.625Z,0
2022-11-04T01:45:40.110Z,0
2022-11-04T01:46:39.740Z,0
2022-11-04T01:47:40.933Z,0
2022-11-04T01:48:41.414Z,0
2022-11-04T01:49:48.672Z,0
2022-11-04T01:50:42.295Z,0
2022-11-04T01:51:43.789Z,0
2022-11-04T01:52:43.684Z,0
2022-11-04T01:53:44.301Z,0
2022-11-04T01:54:44.264Z,0
2022-11-04T01:55:44.884Z,0
2022-11-04T01:56:46.075Z,0
2022-11-04T01:57:46.966Z,0
2022-11-04T01:58:47.166Z,0
2022-11-04T01:59:47.383Z,0
2022-11-04T02:00:47.891Z,0
2022-11-04T02:01:48.673Z,0
2022-11-04T02:02:49.057Z,0
2022-11-04T02:03:49.243Z,0
2022-11-04T02:04:50.256Z,0
2022-11-04T02:05:51.443Z,0
2022-11-04T02:06:52.096Z,0
2022-11-04T02:07:52.580Z,0
2022-11-04T02:08:52.196Z,0
2022-11-04T02:09:53.406Z,0
2022-11-04T02:10:54.002Z,0
2022-11-04T02:11:54.900Z,0
2022-11-04T02:12:56.090Z,0
2022-11-04T02:13:56.416Z,0
2022-11-04T02:14:57.434Z,0
2022-11-04T02:15:57.641Z,0
2022-11-04T02:16:58.528Z,0
2022-11-04T02:17:58.715Z,0
2022-11-04T02:18:59.199Z,0
2022-11-04T02:19:59.385Z,0
2022-11-04T02:20:59.574Z,0
2022-11-04T02:21:59.528Z,0
2022-11-04T02:23:00.734Z,0
2022-11-04T02:24:01.416Z,0
2022-11-04T02:25:01.702Z,0
2022-11-04T02:26:01.983Z,0
2022-11-04T02:27:02.382Z,0
2022-11-04T02:28:03.583Z,0
2022-11-04T02:29:04.501Z,0
2022-11-04T02:30:05.726Z,0
2022-11-04T02:31:05.344Z,0
2022-11-04T02:32:05.969Z,0
2022-11-04T02:33:06.850Z,0
2022-11-04T02:34:07.213Z,0
2022-11-04T02:35:07.498Z,0
2022-11-04T02:36:08.110Z,0
2022-11-04T02:37:08.361Z,0
2022-11-04T02:38:09.170Z,0
2022-11-04T02:39:09.058Z,0
2022-11-04T02:40:09.398Z,0
2022-11-04T02:41:10.606Z,0
2022-11-04T02:42:10.809Z,0
2022-11-04T02:43:12.888Z,0
2022-11-04T02:44:12.087Z,0
2022-11-04T02:45:12.822Z,0
2022-11-04T02:46:13.024Z,0
2022-11-04T02:47:13.917Z,0
2022-11-04T02:48:14.108Z,0
2022-11-04T02:49:15.645Z,0
2022-11-04T02:50:16.358Z,0
2022-11-04T02:51:16.263Z,0
2022-11-04T02:52:17.785Z,0
2022-11-04T02:53:18.338Z,0
2022-11-04T02:54:18.264Z,0
2022-11-04T02:55:18.973Z,0
2022-11-04T02:56:19.592Z,0
2022-11-04T02:57:20.217Z,0
2022-11-04T02:58:21.706Z,0
2022-11-04T02:59:22.197Z,0
2022-11-04T03:00:22.153Z,0
2022-11-04T03:01:23.139Z,0
2022-11-04T03:02:23.824Z,0
2022-11-04T03:03:24.108Z,0
2022-11-04T03:04:24.998Z,0
2022-11-04T03:05:25.575Z,0
2022-11-04T03:06:25.200Z,0
2022-11-04T03:07:26.157Z,0
2022-11-04T03:08:26.076Z,0
2022-11-04T03:09:26.981Z,0
2022-11-04T03:10:27.876Z,0
2022-11-04T03:11:28.507Z,0
2022-11-04T03:12:29.709Z,0
2022-11-04T03:13:30.335Z,0
2022-11-04T03:14:31.550Z,0
2022-11-04T03:15:32.596Z,0
2022-11-04T03:16:32.481Z,0
2022-11-04T03:17:33.397Z,0
2022-11-04T03:18:34.304Z,0
2022-11-04T03:19:34.919Z,0
2022-11-04T03:20:35.099Z,0
2022-11-04T03:21:35.021Z,0
2022-11-04T03:22:36.231Z,0
2022-11-04T03:23:35.839Z,0
2022-11-04T03:24:37.023Z,0
2022-11-04T03:25:37.038Z,0
2022-11-04T03:26:37.648Z,0
2022-11-04T03:27:39.136Z,0
2022-11-04T03:28:39.345Z,0
2022-11-04T03:29:40.267Z,0
2022-11-04T03:30:40.504Z,0
2022-11-04T03:31:40.135Z,0
2022-11-04T03:32:41.589Z,0
2022-11-04T03:33:42.781Z,0
2022-11-04T03:34:42.993Z,0
2022-11-04T03:35:42.984Z,0
2022-11-04T03:36:43.593Z,0
2022-11-04T03:37:44.274Z,0
2022-11-04T03:38:45.485Z,0
2022-11-04T03:39:46.678Z,0
2022-11-04T03:40:46.878Z,0
2022-11-04T03:41:46.800Z,0
2022-11-04T03:42:49.409Z,0
2022-11-04T03:43:47.819Z,0
2022-11-04T03:44:47.443Z,0
2022-11-04T03:45:48.308Z,0
2022-11-04T03:46:48.526Z,0
2022-11-04T03:47:48.858Z,0
2022-11-04T03:48:50.056Z,0
2022-11-04T03:49:50.095Z,0
2022-11-04T03:50:51.575Z,0
2022-11-04T03:51:51.485Z,0
2022-11-04T03:52:52.419Z,0
2022-11-04T03:53:52.727Z,0
2022-11-04T03:54:53.370Z,0
2022-11-04T03:55:54.076Z,0
2022-11-04T03:56:54.263Z,0
2022-11-04T03:57:55.185Z,0
2022-11-04T03:58:56.087Z,0
2022-11-04T03:59:57.292Z,0
2022-11-04T04:00:58.039Z,0
2022-11-04T04:01:59.245Z,0
2022-11-04T04:02:59.563Z,0
2022-11-04T04:04:00.092Z,0
2022-11-04T04:05:00.002Z,0
2022-11-04T04:06:01.307Z,0
2022-11-04T04:07:01.626Z,0
2022-11-04T04:08:02.540Z,0
2022-11-04T04:09:02.484Z,0
2022-11-04T04:10:03.669Z,0
2022-11-04T04:11:03.882Z,0
2022-11-04T04:12:04.206Z,0
2022-11-04T04:13:05.587Z,0
2022-11-04T04:14:05.774Z,0
2022-11-04T04:15:06.696Z,0
2022-11-04T04:16:07.159Z,0
2022-11-04T04:18:08.749Z,0
2022-11-04T04:19:09.837Z,0
2022-11-04T04:20:10.727Z,0
2022-11-04T04:21:11.336Z,0
2022-11-04T04:22:12.526Z,0
2022-11-04T04:23:12.728Z,0
2022-11-04T04:24:12.934Z,0
2022-11-04T04:25:13.132Z,0
2022-11-04T04:26:13.402Z,0
2022-11-04T04:27:14.006Z,0
2022-11-04T04:28:15.866Z,0
2022-11-04T04:29:15.571Z,0
2022-11-04T04:30:16.766Z,0
2022-11-04T04:31:17.444Z,0
2022-11-04T04:32:17.650Z,0
2022-11-04T04:33:18.852Z,0
2022-11-04T04:34:19.049Z,0
2022-11-04T04:35:19.239Z,0
2022-11-04T04:36:19.930Z,0
2022-11-04T04:37:20.104Z,0
2022-11-04T04:38:21.371Z,0
2022-11-04T04:39:21.861Z,0
2022-11-04T04:40:30.110Z,0
2022-11-04T04:41:22.321Z,0
2022-11-04T04:42:22.528Z,0
2022-11-04T04:43:23.127Z,0
2022-11-04T04:44:23.031Z,0
2022-11-04T04:45:23.930Z,0
2022-11-04T04:46:24.371Z,0
2022-11-04T04:47:24.560Z,0
2022-11-04T04:48:24.898Z,0
2022-11-04T04:49:26.110Z,0
2022-11-04T04:50:26.005Z,0
2022-11-04T04:51:25.620Z,0
2022-11-04T04:52:27.536Z,0
2022-11-04T04:53:28.039Z,0
2022-11-04T04:54:28.642Z,0
2022-11-04T04:55:29.846Z,0
2022-11-04T04:56:30.206Z,0
2022-11-04T04:57:30.105Z,0
2022-11-04T04:58:30.714Z,0
2022-11-04T04:59:31.899Z,0
2022-11-04T05:00:31.821Z,0
2022-11-04T05:01:33.160Z,0
2022-11-04T05:02:33.278Z,0
2022-11-04T05:03:33.308Z,0
2022-11-04T05:04:33.981Z,0
2022-11-04T05:05:34.897Z,0
2022-11-04T05:06:35.882Z,0
2022-11-04T05:07:36.806Z,0
2022-11-04T05:08:37.301Z,0
2022-11-04T05:09:37.204Z,0
2022-11-04T05:10:37.843Z,0
2022-11-04T05:11:39.327Z,0
2022-11-04T05:12:38.940Z,0
2022-11-04T05:13:39.846Z,0
2022-11-04T05:14:41.035Z,0
2022-11-04T05:15:42.243Z,0
2022-11-04T05:16:48.091Z,0
2022-11-04T05:17:43.012Z,0
2022-11-04T05:18:44.498Z,0
2022-11-04T05:19:44.406Z,0
2022-11-04T05:20:45.328Z,0
2022-11-04T05:21:45.963Z,0
2022-11-04T05:22:46.574Z,0
2022-11-04T05:23:47.201Z,0
2022-11-04T05:24:47.406Z,0
2022-11-04T05:25:47.311Z,0
2022-11-04T05:26:48.616Z,0
2022-11-04T05:27:49.086Z,0
2022-11-04T05:28:49.278Z,0
2022-11-04T05:29:50.187Z,0
2022-11-04T05:30:50.679Z,0
2022-11-04T05:31:50.624Z,0
2022-11-04T05:32:50.824Z,0
2022-11-04T05:33:51.071Z,0
2022-11-04T05:34:51.978Z,0
2022-11-04T05:35:52.461Z,0
2022-11-04T05:36:53.469Z,0
2022-11-04T05:37:53.947Z,0
2022-11-04T05:38:53.860Z,0
2022-11-04T05:39:53.748Z,0
2022-11-04T05:40:54.956Z,0
2022-11-04T05:41:55.370Z,0
2022-11-04T05:42:55.579Z,0
2022-11-04T05:43:56.786Z,0
2022-11-04T05:44:57.268Z,0
2022-11-04T05:45:57.772Z,0
2022-11-04T05:46:58.116Z,0
2022-11-04T05:47:58.003Z,0
2022-11-04T05:48:59.198Z,0
2022-11-04T05:49:59.528Z,0
2022-11-04T05:51:00.725Z,0
2022-11-04T05:52:00.335Z,0
2022-11-04T05:53:01.824Z,0
2022-11-04T05:54:02.370Z,0
2022-11-04T05:55:02.580Z,0
2022-11-04T05:56:03.199Z,4
2022-11-04T05:57:03.910Z,4
2022-11-04T05:58:04.163Z,4
2022-11-04T05:59:04.928Z,0
2022-11-04T06:00:05.109Z,0
2022-11-04T06:01:06.016Z,4
2022-11-04T06:02:07.607Z,4
2022-11-04T06:03:09.450Z,4
2022-11-04T06:04:06.780Z,4
2022-11-04T06:05:07.113Z,8
2022-11-04T06:06:08.312Z,4
2022-11-04T06:07:09.632Z,4
2022-11-04T06:08:09.896Z,4
2022-11-04T06:09:09.556Z,4
2022-11-04T06:10:09.883Z,8
2022-11-04T06:11:10.780Z,8
2022-11-04T06:12:11.970Z,8
2022-11-04T06:13:12.854Z,8
2022-11-04T06:14:17.610Z,8
2022-11-04T06:15:13.983Z,8
2022-11-04T06:16:14.619Z,8
2022-11-04T06:17:15.780Z,8
2022-11-04T06:18:17.031Z,8
2022-11-04T06:19:22.522Z,12
2022-11-04T06:20:16.843Z,12
2022-11-04T06:21:18.050Z,16
2022-11-04T06:22:17.979Z,12
2022-11-04T06:23:18.610Z,16
2022-11-04T06:24:19.528Z,16
2022-11-04T06:25:20.157Z,16
2022-11-04T06:26:25.231Z,16
2022-11-04T06:27:21.789Z,16
2022-11-04T06:28:22.536Z,16
2022-11-04T06:29:23.183Z,16
2022-11-04T06:30:24.372Z,16
2022-11-04T06:31:25.598Z,20
2022-11-04T06:32:25.599Z,20
2022-11-04T06:33:25.794Z,20
2022-11-04T06:34:25.980Z,20
2022-11-04T06:35:26.913Z,20
2022-11-04T06:36:27.503Z,28
2022-11-04T06:37:28.522Z,28
2022-11-04T06:38:28.719Z,28
2022-11-04T06:39:28.926Z,32
2022-11-04T06:40:29.262Z,32
2022-11-04T06:41:29.878Z,36
2022-11-04T06:42:30.822Z,36
2022-11-04T06:43:30.720Z,40
2022-11-04T06:44:31.630Z,40
2022-11-04T06:45:32.885Z,32
2022-11-04T06:46:32.812Z,32
2022-11-04T06:47:36.557Z,32
2022-11-04T06:48:34.478Z,32
2022-11-04T06:49:35.672Z,40
2022-11-04T06:50:36.580Z,44
2022-11-04T06:51:37.489Z,44
2022-11-04T06:52:44.650Z,48
2022-11-04T06:53:39.280Z,48
2022-11-04T06:54:39.487Z,48
2022-11-04T06:55:39.392Z,44
2022-11-04T06:56:40.011Z,40
2022-11-04T06:57:40.996Z,44
2022-11-04T06:58:41.611Z,48
2022-11-04T06:59:42.237Z,52
2022-11-04T07:00:43.151Z,56
2022-11-04T07:01:44.781Z,64
2022-11-04T07:02:46.229Z,72
2022-11-04T07:03:45.329Z,92
2022-11-04T07:04:46.587Z,116
2022-11-04T07:05:46.865Z,144
2022-11-04T07:06:50.880Z,156
2022-11-04T07:07:47.336Z,160
2022-11-04T07:08:47.519Z,152
2022-11-04T07:09:48.449Z,148
2022-11-04T07:10:48.358Z,132
2022-11-04T07:11:49.277Z,104
2022-11-04T07:12:49.891Z,76
2022-11-04T07:13:50.521Z,60
2022-11-04T07:14:51.724Z,56
2022-11-04T07:15:52.637Z,52
2022-11-04T07:16:52.839Z,52
2022-11-04T07:17:53.901Z,56
2022-11-04T07:18:53.843Z,60
2022-11-04T07:19:54.465Z,60
2022-11-04T07:20:55.656Z,68
2022-11-04T07:21:56.403Z,76
2022-11-04T07:22:56.443Z,76
2022-11-04T07:23:56.781Z,72
2022-11-04T07:24:57.423Z,72
2022-11-04T07:25:58.312Z,64
2022-11-04T07:26:59.627Z,64
2022-11-04T07:28:08.059Z,64
2022-11-04T07:29:00.731Z,64
2022-11-04T07:30:01.234Z,64
2022-11-04T07:31:02.144Z,64
2022-11-04T07:32:02.774Z,68
2022-11-04T07:33:03.019Z,68
2022-11-04T07:34:02.908Z,76
2022-11-04T07:35:04.113Z,84
2022-11-04T07:36:09.298Z,92
2022-11-04T07:37:04.781Z,108
2022-11-04T07:38:05.911Z,112
2022-11-04T07:39:06.149Z,112
2022-11-04T07:40:06.358Z,108
2022-11-04T07:41:07.273Z,104
2022-11-04T07:42:10.719Z,104
2022-11-04T07:43:07.613Z,100
2022-11-04T07:44:07.528Z,96
2022-11-04T07:45:08.132Z,92
2022-11-04T07:46:08.566Z,84
2022-11-04T07:47:09.770Z,84
2022-11-04T07:48:11.001Z,88
2022-11-04T07:49:10.094Z,88
2022-11-04T07:50:17.220Z,100
2022-11-04T07:51:11.706Z,100
2022-11-04T07:52:11.044Z,112
2022-11-04T07:53:13.148Z,128
2022-11-04T07:54:12.071Z,148
2022-11-04T07:55:13.043Z,160
2022-11-04T07:56:13.654Z,160
2022-11-04T07:57:14.658Z,164
2022-11-04T07:58:15.699Z,160
2022-11-04T07:59:16.185Z,164
2022-11-04T08:00:16.367Z,164
2022-11-04T08:01:16.927Z,164
2022-11-04T08:02:22.344Z,164
2022-11-04T08:03:19.741Z,164
2022-11-04T08:04:17.703Z,160
2022-11-04T08:05:18.319Z,156
2022-11-04T08:06:19.805Z,160
2022-11-04T08:07:20.402Z,172
2022-11-04T08:08:20.122Z,188
2022-11-04T08:09:21.618Z,200
2022-11-04T08:10:21.725Z,204
2022-11-04T08:11:27.936Z,204
2022-11-04T08:12:22.579Z,208
2022-11-04T08:13:23.485Z,208
2022-11-04T08:14:24.980Z,208
2022-11-04T08:15:24.875Z,196
2022-11-04T08:16:30.106Z,192
2022-11-04T08:17:26.500Z,208
2022-11-04T08:18:26.818Z,236
2022-11-04T08:19:27.316Z,256
2022-11-04T08:20:27.950Z,268
2022-11-04T08:21:28.132Z,276
2022-11-04T08:22:32.723Z,280
2022-11-04T08:23:29.157Z,284
2022-11-04T08:24:29.353Z,292
2022-11-04T08:25:29.570Z,296
2022-11-04T08:26:31.356Z,284
2022-11-04T08:27:31.377Z,276
2022-11-04T08:28:32.747Z,268
2022-11-04T08:29:33.452Z,268
2022-11-04T08:30:33.518Z,276
2022-11-04T08:31:35.143Z,288
2022-11-04T08:32:35.658Z,296
2022-11-04T08:33:35.942Z,304
2022-11-04T08:34:36.191Z,312
2022-11-04T08:35:40.991Z,312
2022-11-04T08:36:37.071Z,296
2022-11-04T08:37:37.412Z,268
2022-11-04T08:38:38.118Z,248
2022-11-04T08:39:38.492Z,244
2022-11-04T08:40:39.721Z,248
2022-11-04T08:41:39.928Z,244
2022-11-04T08:42:40.561Z,244
2022-11-04T08:43:40.946Z,236
2022-11-04T08:44:41.860Z,232
2022-11-04T08:45:44.912Z,240
2022-11-04T08:46:42.544Z,256
2022-11-04T08:47:44.042Z,268
2022-11-04T08:48:44.212Z,284
2022-11-04T08:49:44.465Z,300
2022-11-04T08:50:45.082Z,304
2022-11-04T08:51:45.575Z,308
2022-11-04T08:52:45.788Z,312
2022-11-04T08:53:45.981Z,316
2022-11-04T08:54:46.457Z,316
2022-11-04T08:55:47.207Z,320
2022-11-04T08:56:47.137Z,324
2022-11-04T08:57:47.348Z,320
2022-11-04T08:58:48.556Z,308
2022-11-04T08:59:48.741Z,296
2022-11-04T09:00:49.084Z,280
2022-11-04T09:01:50.471Z,260
2022-11-04T09:02:50.868Z,240
2022-11-04T09:03:51.365Z,224
2022-11-04T09:04:52.016Z,208
2022-11-04T09:05:51.938Z,200
2022-11-04T09:06:52.588Z,196
2022-11-04T09:07:53.470Z,196
2022-11-04T09:08:54.326Z,200
2022-11-04T09:09:54.229Z,208
2022-11-04T09:10:55.440Z,216
2022-11-04T09:11:55.439Z,220
2022-11-04T09:12:56.368Z,216
2022-11-04T09:13:55.714Z,208
2022-11-04T09:14:56.306Z,200
2022-11-04T09:15:56.646Z,188
2022-11-04T09:16:57.300Z,172
2022-11-04T09:17:58.647Z,160
2022-11-04T09:18:59.677Z,148
2022-11-04T09:20:00.366Z,144
2022-11-04T09:21:00.381Z,148
2022-11-04T09:22:01.581Z,156
2022-11-04T09:23:01.191Z,168
2022-11-04T09:24:02.292Z,184
2022-11-04T09:25:02.491Z,192
2022-11-04T09:26:03.504Z,196
2022-11-04T09:27:04.395Z,192
2022-11-04T09:28:05.316Z,180
2022-11-04T09:29:06.650Z,168
2022-11-04T09:30:06.713Z,156
2022-11-04T09:31:08.201Z,144
2022-11-04T09:32:08.527Z,140
2022-11-04T09:33:09.824Z,136
2022-11-04T09:34:10.594Z,136
2022-11-04T09:35:10.890Z,140
2022-11-04T09:36:11.369Z,144
2022-11-04T09:37:11.296Z,152
2022-11-04T09:38:12.219Z,164
2022-11-04T09:39:12.203Z,176
2022-11-04T09:40:13.408Z,192
2022-11-04T09:41:14.727Z,208
2022-11-04T09:42:14.634Z,228
2022-11-04T09:43:15.436Z,244
2022-11-04T09:44:15.344Z,264
2022-11-04T09:45:33.034Z,284
2022-11-04T09:46:17.000Z,288
2022-11-04T09:47:21.580Z,284
2022-11-04T09:48:18.900Z,260
2022-11-04T09:49:19.628Z,228
2022-11-04T09:50:20.186Z,208
2022-11-04T09:52:01.127Z,196
2022-11-04T09:52:21.325Z,200
2022-11-04T09:53:22.329Z,216
2022-11-04T09:54:22.845Z,224
2022-11-04T09:55:22.766Z,232
2022-11-04T09:56:23.451Z,248
2022-11-04T09:57:23.420Z,264
2022-11-04T09:58:24.188Z,276
2022-11-04T09:59:24.371Z,292
2022-11-04T10:00:26.008Z,308
2022-11-04T10:01:26.906Z,320
2022-11-04T10:02:32.971Z,328
2022-11-04T10:03:27.591Z,340
2022-11-04T10:04:28.287Z,352
2022-11-04T10:05:28.566Z,356
2022-11-04T10:06:29.054Z,360
2022-11-04T10:07:29.237Z,356
2022-11-04T10:08:33.845Z,360
2022-11-04T10:09:30.367Z,364
2022-11-04T10:10:30.565Z,368
2022-11-04T10:11:31.595Z,372
2022-11-04T10:12:31.926Z,376
2022-11-04T10:13:32.267Z,372
2022-11-04T10:14:41.302Z,372
2022-11-04T10:15:34.491Z,388
2022-11-04T10:16:35.700Z,408
2022-11-04T10:17:35.882Z,412
2022-11-04T10:18:36.176Z,416
2022-11-04T10:19:37.745Z,420
2022-11-04T10:20:42.675Z,444
2022-11-04T10:21:38.546Z,476
2022-11-04T10:22:38.453Z,496
2022-11-04T10:23:39.232Z,496
2022-11-04T10:24:40.445Z,468
2022-11-04T10:25:40.445Z,428
2022-11-04T10:26:41.638Z,376
2022-11-04T10:27:41.840Z,348
2022-11-04T10:28:41.731Z,340
2022-11-04T10:29:42.681Z,352
2022-11-04T10:30:43.581Z,364
2022-11-04T10:31:44.494Z,364
2022-11-04T10:32:44.973Z,376
2022-11-04T10:33:45.277Z,396
2022-11-04T10:34:46.475Z,404
2022-11-04T10:35:46.614Z,408
2022-11-04T10:36:47.251Z,408
2022-11-04T10:37:47.563Z,400
2022-11-04T10:38:47.912Z,412
2022-11-04T10:39:48.597Z,420
2022-11-04T10:40:48.798Z,428
2022-11-04T10:41:49.392Z,436
2022-11-04T10:42:49.326Z,452
2022-11-04T10:43:50.522Z,472
2022-11-04T10:44:50.414Z,472
2022-11-04T10:45:50.895Z,464
2022-11-04T10:46:50.798Z,452
2022-11-04T10:47:50.982Z,440
2022-11-04T10:48:51.623Z,432
2022-11-04T10:50:41.511Z,436
2022-11-04T10:50:59.101Z,436
2022-11-04T10:51:59.287Z,432
2022-11-04T10:52:59.882Z,428
2022-11-04T10:53:59.917Z,412
2022-11-04T10:55:01.538Z,400
2022-11-04T10:56:02.512Z,392
2022-11-04T10:57:03.360Z,380
2022-11-04T10:58:03.285Z,372
2022-11-04T10:59:04.214Z,376
2022-11-04T11:00:04.195Z,376
2022-11-04T11:01:08.064Z,384
2022-11-04T11:02:06.464Z,392
2022-11-04T11:03:06.137Z,404
2022-11-04T11:04:07.582Z,416
2022-11-04T11:05:07.793Z,416
2022-11-04T11:06:08.316Z,420
2022-11-04T11:07:08.525Z,424
2022-11-04T11:08:09.170Z,428
2022-11-04T11:09:10.377Z,436
2022-11-04T11:10:11.120Z,432
2022-11-04T11:11:11.604Z,424
2022-11-04T11:12:56.252Z,420
2022-11-04T11:13:14.712Z,416
2022-11-04T11:14:13.656Z,416
2022-11-04T11:15:20.279Z,416
2022-11-04T11:16:15.775Z,408
2022-11-04T11:17:15.963Z,404
2022-11-04T11:18:16.887Z,408
2022-11-04T11:19:17.390Z,408
2022-11-04T11:20:17.849Z,408
2022-11-04T11:21:18.870Z,408
2022-11-04T11:22:18.796Z,412
2022-11-04T11:23:20.690Z,428
2022-11-04T11:24:20.316Z,440
2022-11-04T11:25:21.205Z,448
2022-11-04T11:26:22.411Z,444
2022-11-04T11:27:23.345Z,432
2022-11-04T11:28:23.531Z,412
2022-11-04T11:29:23.738Z,392
2022-11-04T11:30:24.312Z,384
2022-11-04T11:31:24.532Z,380
2022-11-04T11:32:25.138Z,380
2022-11-04T11:33:26.045Z,388
2022-11-04T11:34:26.972Z,384
2022-11-04T11:35:27.449Z,376
2022-11-04T11:36:27.646Z,372
2022-11-04T11:37:27.887Z,368
2022-11-04T11:38:27.783Z,360
2022-11-04T11:39:28.704Z,360
2022-11-04T11:40:29.997Z,356
2022-11-04T11:41:41.055Z,352
2022-11-04T11:42:31.124Z,348
2022-11-04T11:43:31.034Z,344
2022-11-04T11:44:31.740Z,336
2022-11-04T11:45:32.152Z,332
2022-11-04T11:46:33.352Z,332
2022-11-04T11:47:34.684Z,340
2022-11-04T11:48:34.869Z,356
2022-11-04T11:49:35.067Z,368
2022-11-04T11:50:35.430Z,380
2022-11-04T11:51:42.789Z,396
2022-11-04T11:52:36.454Z,400
2022-11-04T11:53:37.657Z,400
2022-11-04T11:54:38.847Z,392
2022-11-04T11:55:39.034Z,388
2022-11-04T11:57:25.289Z,384
2022-11-04T11:57:42.566Z,380
2022-11-04T12:00:56.877Z,336
2022-11-04T12:01:58.152Z,320
2022-11-04T12:02:59.034Z,316
2022-11-04T12:06:32.615Z,344
2022-11-04T12:09:34.361Z,368
2022-11-04T12:10:57.464Z,368
2022-11-04T12:11:24.081Z,372
2022-11-04T12:12:25.286Z,376
2022-11-04T12:13:36.035Z,384
2022-11-04T12:14:25.663Z,388
2022-11-04T12:15:26.719Z,400
2022-11-04T12:16:26.634Z,412
2022-11-04T12:17:26.818Z,420
2022-11-04T12:18:28.026Z,424
2022-11-04T12:19:27.926Z,436
2022-11-04T12:20:28.959Z,440
2022-11-04T12:21:29.565Z,448
2022-11-04T12:22:31.061Z,456
2022-11-04T12:23:31.723Z,460
2022-11-04T12:24:32.981Z,472
2022-11-04T12:25:33.272Z,484
2022-11-04T12:26:34.192Z,500
2022-11-04T12:27:34.730Z,520
2022-11-04T12:28:34.659Z,540
2022-11-04T12:29:35.870Z,560
2022-11-04T12:30:44.942Z,580
2022-11-04T12:31:36.879Z,588
2022-11-04T12:32:37.364Z,596
2022-11-04T12:33:37.277Z,608
2022-11-04T12:34:37.909Z,616
2022-11-04T12:35:38.330Z,632
2022-11-04T12:36:42.805Z,644
2022-11-04T12:37:38.344Z,648
2022-11-04T12:38:39.281Z,640
2022-11-04T12:39:40.245Z,632
2022-11-04T12:40:39.861Z,612
2022-11-04T12:42:32.920Z,560
2022-11-04T12:42:50.178Z,548
2022-11-04T12:43:51.676Z,512
2022-11-04T12:44:51.889Z,476
2022-11-04T12:45:52.613Z,440
2022-11-04T12:46:52.525Z,404
2022-11-04T12:47:52.732Z,376
2022-11-04T12:49:06.996Z,352
2022-11-04T12:49:54.101Z,336
2022-11-04T12:50:54.287Z,324
2022-11-04T12:51:55.302Z,320
2022-11-04T12:52:55.687Z,316
2022-11-04T12:53:56.623Z,312
2022-11-04T12:54:56.643Z,312
2022-11-04T12:55:57.044Z,312
2022-11-04T12:56:57.354Z,316
2022-11-04T12:57:57.967Z,324
2022-11-04T12:58:58.067Z,340
2022-11-04T12:59:58.673Z,352
2022-11-04T13:01:06.886Z,364
2022-11-04T13:02:01.274Z,368
2022-11-04T13:03:01.062Z,368
2022-11-04T13:04:01.038Z,368
2022-11-04T13:05:01.988Z,364
2022-11-04T13:06:02.238Z,368
2022-11-04T13:07:03.189Z,368
2022-11-04T13:08:03.133Z,368
2022-11-04T13:09:03.507Z,372
2022-11-04T13:10:03.753Z,372
2022-11-04T13:11:04.657Z,376
2022-11-04T13:12:04.581Z,376
2022-11-04T13:13:05.787Z,372
2022-11-04T13:14:13.021Z,372
2022-11-04T13:15:07.514Z,364
2022-11-04T13:16:07.901Z,360
2022-11-04T13:17:07.809Z,356
2022-11-04T13:18:07.721Z,348
2022-11-04T13:19:08.911Z,344
2022-11-04T13:20:09.555Z,344
2022-11-04T13:21:13.865Z,348
2022-11-04T13:22:10.779Z,352
2022-11-04T13:23:15.249Z,356
2022-11-04T13:24:11.855Z,356
2022-11-04T13:25:13.986Z,360
2022-11-04T13:26:13.670Z,360
2022-11-04T13:27:14.873Z,352
2022-11-04T13:28:14.779Z,340
2022-11-04T13:29:20.357Z,332
2022-11-04T13:30:15.975Z,340
2022-11-04T13:31:17.186Z,348
2022-11-04T13:32:17.800Z,360
2022-11-04T13:33:18.656Z,372
2022-11-04T13:34:23.158Z,400
2022-11-04T13:35:20.248Z,432
2022-11-04T13:36:20.639Z,460
2022-11-04T13:37:21.271Z,480
2022-11-04T13:38:22.753Z,496
2022-11-04T13:39:23.385Z,516
2022-11-04T13:40:23.732Z,536
2022-11-04T13:41:31.034Z,560
2022-11-04T13:42:25.105Z,576
2022-11-04T13:43:25.819Z,600
2022-11-04T13:44:27.403Z,628
2022-11-04T13:45:27.030Z,656
2022-11-04T13:46:28.603Z,684
2022-11-04T13:47:33.360Z,712
2022-11-04T13:48:29.277Z,732
2022-11-04T13:49:30.185Z,756
2022-11-04T13:50:30.781Z,772
2022-11-04T13:51:30.832Z,788
2022-11-04T13:52:32.135Z,804
2022-11-04T13:53:33.026Z,820
2022-11-04T13:54:33.217Z,836
2022-11-04T13:55:33.793Z,848
2022-11-04T13:56:46.902Z,868
2022-11-04T13:57:46.818Z,880
2022-11-04T13:58:52.976Z,892
2022-11-04T13:59:48.352Z,896
2022-11-04T14:00:48.349Z,900
2022-11-04T14:01:50.242Z,896
2022-11-04T14:02:50.442Z,896
2022-11-04T14:03:50.801Z,896
2022-11-04T14:04:51.291Z,908
2022-11-04T14:05:50.915Z,924
2022-11-04T14:06:51.387Z,952
2022-11-04T14:07:51.296Z,980
2022-11-04T14:08:52.507Z,1020
2022-11-04T14:09:53.145Z,1052
2022-11-04T14:10:54.635Z,1088
2022-11-04T14:11:54.869Z,1120
2022-11-04T14:12:55.093Z,1152
2022-11-04T14:13:55.283Z,1172
2022-11-04T14:14:56.011Z,1192
2022-11-04T14:15:56.920Z,1220
2022-11-04T14:16:57.345Z,1264
2022-11-04T14:17:57.683Z,1300
2022-11-04T14:18:58.612Z,1320
2022-11-04T14:19:59.529Z,1336
2022-11-04T14:21:00.147Z,1328
2022-11-04T14:22:00.350Z,1332
2022-11-04T14:23:01.547Z,1320
2022-11-04T14:24:02.106Z,1296
2022-11-04T14:25:02.837Z,1252
2022-11-04T14:26:04.373Z,1220
2022-11-04T14:27:04.673Z,1204
2022-11-04T14:28:04.565Z,1176
2022-11-04T14:29:06.120Z,1148
2022-11-04T14:30:06.783Z,1124